Time;durP1;ratioP1;P1;durP2;ratioP2;P2;SDS_P1;SDS_P2;PMS_P1;PMS_P2;Temp;Humidity;BMP_temperature;BMP_pressure;BME280_temperature;BME280_humidity;BME280_pressure;Samples;Min_cycle;Max_cycle;Signal;HPM_P1;HPM_P2
2022/03/02 00:01:16;;;;;;;;;;;;;;;;;;5089560;28;20482;-52
2022/03/02 00:03:42;;;;;;;;;;;;;;;;;;5089191;28;19929;-54
2022/03/02 00:06:09;;;;;;;;;;;;;;;;;;5087784;28;19908;-55
2022/03/02 00:08:35;;;;;;;;;;;;;;;;;;5087463;28;20278;-50
2022/03/02 00:11:02;;;;;;;;;;;;;;;;;;5089862;28;19908;-52
2022/03/02 00:13:28;;;;;;;;;;;;;;;;;;5087481;28;19912;-51
2022/03/02 00:15:55;;;;;;;;;;;;;;;;;;5087912;28;19965;-56
2022/03/02 00:18:22;;;;;;;;;;;;;;;;;;5087403;28;19909;-58
2022/03/02 00:20:48;;;;;;;;;;;;;;;;;;5089022;28;20029;-48
2022/03/02 00:23:15;;;;;;;;;;;;;;;;;;5091237;28;19920;-48
2022/03/02 00:25:41;;;;;;;;;;;;;;;;;;5089200;28;19923;-55
2022/03/02 00:28:08;;;;;;;;;;;;;;;;;;5087549;28;19913;-60
2022/03/02 00:30:34;;;;;;;;;;;;;;;;;;5089924;28;19912;-55
2022/03/02 00:33:01;;;;;;;;;;;;;;;;;;5088683;28;19915;-58
2022/03/02 00:35:27;;;;;;;;;;;;;;;;;;5089121;28;19912;-51
2022/03/02 00:37:54;;;;;;;;;;;;;;;;;;5086116;28;20006;-57
2022/03/02 00:40:20;;;;;;;;;;;;;;;;;;5089375;28;20370;-52
2022/03/02 00:42:47;;;;;;;;;;;;;;;;;;5088646;28;19924;-53
2022/03/02 00:45:13;;;;;;;;;;;;;;;;;;5088801;28;19920;-51
2022/03/02 00:47:40;;;;;;;;;;;;;;;;;;5084866;28;19915;-58
2022/03/02 00:50:06;;;;;;;;;;;;;;;;;;5088461;28;19948;-51
2022/03/02 00:52:33;;;;;;;;;;;;;;;;;;5088451;28;19912;-53
2022/03/02 00:54:59;;;;;;;;;;;;;;;;;;5088742;28;19914;-58
2022/03/02 00:57:26;;;;;;;;;;;;;;;;;;5085630;28;19916;-56
2022/03/02 00:59:52;;;;;;;;;;;;;;;;;;5087538;28;20255;-55
2022/03/02 01:02:19;;;;;;;;;;;;;;;;;;5087810;28;19935;-57
2022/03/02 01:04:45;;;;;;;;;;;;;;;;;;5086652;28;20005;-59
2022/03/02 01:07:12;;;;;;;;;;;;;;;;;;5085849;28;19916;-52
2022/03/02 01:09:38;;;;;;;;;;;;;;;;;;5088728;28;20350;-54
2022/03/02 01:12:05;;;;;;;;;;;;;;;;;;5092446;28;19955;-48
2022/03/02 01:14:31;;;;;;;;;;;;;;;;;;5092268;28;19931;-59
2022/03/02 01:16:58;;;;;;;;;;;;;;;;;;5089897;28;19966;-57
2022/03/02 01:19:24;;;;;;;;;;;;;;;;;;5092519;28;20038;-54
2022/03/02 01:21:51;;;;;;;;;;;;;;;;;;5091698;28;20000;-54
2022/03/02 01:24:17;;;;;;;;;;;;;;;;;;5092727;28;19980;-53
2022/03/02 01:26:46;;;;;;;;;;;;;;;;;;5089175;28;19994;-55
2022/03/02 01:29:12;;;;;;;;;;;;;;;;;;5094365;28;20372;-54
2022/03/02 01:31:39;;;;;;;;;;;;;;;;;;5092121;28;19952;-52
2022/03/02 01:34:05;;;;;;;;;;;;;;;;;;5092579;28;19908;-53
2022/03/02 01:36:32;;;;;;;;;;;;;;;;;;5089414;28;20024;-53
2022/03/02 01:38:58;;;;;;;;;;;;;;;;;;5092687;28;20270;-53
2022/03/02 01:41:25;;;;;;;;;;;;;;;;;;5091552;28;19931;-53
2022/03/02 01:43:51;;;;;;;;;;;;;;;;;;5092187;28;19938;-56
2022/03/02 01:46:18;;;;;;;;;;;;;;;;;;5090650;28;19912;-53
2022/03/02 01:48:44;;;;;;;;;;;;;;;;;;5091150;28;19919;-52
2022/03/02 01:51:11;;;;;;;;;;;;;;;;;;5092464;28;19987;-53
2022/03/02 01:53:37;;;;;;;;;;;;;;;;;;5091573;28;20374;-50
2022/03/02 01:56:04;;;;;;;;;;;;;;;;;;5092301;28;20389;-53
2022/03/02 01:58:30;;;;;;;;;;;;;;;;;;5089874;28;19908;-55
2022/03/02 02:00:57;;;;;;;;;;;;;;;;;;5091923;28;19920;-53
2022/03/02 02:03:23;;;;;;;;;;;;;;;;;;5090980;28;19927;-52
2022/03/02 02:05:50;;;;;;;;;;;;;;;;;;5091395;28;20377;-54
2022/03/02 02:08:16;;;;;;;;;;;;;;;;;;5090168;28;20006;-59
2022/03/02 02:10:43;;;;;;;;;;;;;;;;;;5088823;28;19912;-52
2022/03/02 02:13:09;;;;;;;;;;;;;;;;;;5091844;28;19908;-54
2022/03/02 02:15:36;;;;;;;;;;;;;;;;;;5092347;28;19912;-51
2022/03/02 02:18:02;;;;;;;;;;;;;;;;;;5090959;28;20035;-53
2022/03/02 02:20:29;;;;;;;;;;;;;;;;;;5091248;28;19923;-59
2022/03/02 02:22:56;;;;;;;;;;;;;;;;;;5090196;28;20007;-57
2022/03/02 02:25:22;;;;;;;;;;;;;;;;;;5090338;28;20390;-58
2022/03/02 02:27:49;;;;;;;;;;;;;;;;;;5089496;28;20286;-51
2022/03/02 02:30:15;;;;;;;;;;;;;;;;;;5091085;28;20003;-53
2022/03/02 02:32:42;;;;;;;;;;;;;;;;;;5091112;28;19935;-52
2022/03/02 02:35:08;;;;;;;;;;;;;;;;;;5090217;28;19908;-53
2022/03/02 02:37:34;;;;;;;;;;;;;;;;;;5088488;28;20009;-53
2022/03/02 02:40:01;;;;;;;;;;;;;;;;;;5088142;28;19908;-53
2022/03/02 02:42:27;;;;;;;;;;;;;;;;;;5088843;28;19930;-51
2022/03/02 02:44:54;;;;;;;;;;;;;;;;;;5090423;28;21506;-55
2022/03/02 02:47:20;;;;;;;;;;;;;;;;;;5087673;28;20018;-61
2022/03/02 02:49:47;;;;;;;;;;;;;;;;;;5091200;28;19916;-59
2022/03/02 02:52:14;;;;;;;;;;;;;;;;;;5089850;28;19908;-59
2022/03/02 02:54:40;;;;;;;;;;;;;;;;;;5090887;28;19908;-58
2022/03/02 02:57:07;;;;;;;;;;;;;;;;;;5087767;28;19916;-50
2022/03/02 02:59:33;;;;;;;;;;;;;;;;;;5090746;28;19912;-54
2022/03/02 03:02:00;;;;;;;;;;;;;;;;;;5089135;28;20366;-57
2022/03/02 03:04:26;;;;;;;;;;;;;;;;;;5091616;28;20327;-56
2022/03/02 03:06:53;;;;;;;;;;;;;;;;;;5088738;28;19914;-54
2022/03/02 03:09:19;;;;;;;;;;;;;;;;;;5089783;28;19909;-52
2022/03/02 03:11:46;;;;;;;;;;;;;;;;;;5089480;28;19961;-54
2022/03/02 03:14:12;;;;;;;;;;;;;;;;;;5090323;28;20346;-54
2022/03/02 03:16:39;;;;;;;;;;;;;;;;;;5090000;28;19912;-57
2022/03/02 03:19:05;;;;;;;;;;;;;;;;;;5086884;28;19969;-61
2022/03/02 03:21:32;;;;;;;;;;;;;;;;;;5089826;28;20317;-54
2022/03/02 03:23:59;;;;;;;;;;;;;;;;;;5090195;28;19916;-51
2022/03/02 03:26:25;;;;;;;;;;;;;;;;;;5090298;28;20332;-54
2022/03/02 03:28:52;;;;;;;;;;;;;;;;;;5087293;28;19962;-50
2022/03/02 03:31:18;;;;;;;;;;;;;;;;;;5089373;28;20888;-55
2022/03/02 03:33:45;;;;;;;;;;;;;;;;;;5089576;28;19908;-49
2022/03/02 03:36:11;;;;;;;;;;;;;;;;;;5087732;28;19916;-51
2022/03/02 03:38:38;;;;;;;;;;;;;;;;;;5087290;28;19916;-52
2022/03/02 03:41:04;;;;;;;;;;;;;;;;;;5089845;28;19916;-51
2022/03/02 03:43:30;;;;;;;;;;;;;;;;;;5088872;28;19916;-54
2022/03/02 03:45:57;;;;;;;;;;;;;;;;;;5088943;28;19920;-50
2022/03/02 03:48:23;;;;;;;;;;;;;;;;;;5086627;28;19908;-56
2022/03/02 03:50:50;;;;;;;;;;;;;;;;;;5089612;28;19912;-54
2022/03/02 03:53:16;;;;;;;;;;;;;;;;;;5088985;28;20000;-50
2022/03/02 03:55:43;;;;;;;;;;;;;;;;;;5088062;28;20269;-55
2022/03/02 03:58:09;;;;;;;;;;;;;;;;;;5086023;28;19908;-55
2022/03/02 04:00:36;;;;;;;;;;;;;;;;;;5089220;28;20369;-54
2022/03/02 04:03:04;;;;;;;;;;;;;;;;;;5087080;28;19921;-52
2022/03/02 04:05:30;;;;;;;;;;;;;;;;;;5087795;28;19934;-53
2022/03/02 04:07:57;;;;;;;;;;;;;;;;;;5084884;28;20273;-54
2022/03/02 04:10:23;;;;;;;;;;;;;;;;;;5087608;28;19959;-54
2022/03/02 04:12:50;;;;;;;;;;;;;;;;;;5086451;28;19951;-51
2022/03/02 04:15:18;;;;;;;;;;;;;;;;;;5087791;28;20335;-55
2022/03/02 04:17:46;;;;;;;;;;;;;;;;;;5085677;28;19908;-55
2022/03/02 04:20:12;;;;;;;;;;;;;;;;;;5087814;28;19908;-55
2022/03/02 04:22:38;;;;;;;;;;;;;;;;;;5088959;28;21079;-55
2022/03/02 04:25:05;;;;;;;;;;;;;;;;;;5089378;28;19908;-57
2022/03/02 04:27:31;;;;;;;;;;;;;;;;;;5086789;28;19915;-51
2022/03/02 04:29:58;;;;;;;;;;;;;;;;;;5088579;28;19915;-56
2022/03/02 04:32:24;;;;;;;;;;;;;;;;;;5089263;28;19944;-59
2022/03/02 04:34:51;;;;;;;;;;;;;;;;;;5089171;28;19996;-52
2022/03/02 04:37:17;;;;;;;;;;;;;;;;;;5091051;28;19913;-57
2022/03/02 04:39:44;;;;;;;;;;;;;;;;;;5091874;28;20265;-57
2022/03/02 04:42:10;;;;;;;;;;;;;;;;;;5092515;28;20243;-55
2022/03/02 04:44:37;;;;;;;;;;;;;;;;;;5092570;28;19923;-60
2022/03/02 04:47:03;;;;;;;;;;;;;;;;;;5096110;28;19908;-59
2022/03/02 04:49:30;;;;;;;;;;;;;;;;;;5094768;28;19915;-63
2022/03/02 04:51:56;;;;;;;;;;;;;;;;;;5088516;28;20009;-47
2022/03/02 04:57:09;;;;;;;;;;;;;;;;;;5093082;28;20434;-52
2022/03/02 04:59:36;;;;;;;;;;;;;;;;;;5092381;28;19908;-49
2022/03/02 05:02:02;;;;;;;;;;;;;;;;;;5088166;28;19924;-45
2022/03/02 05:04:29;;;;;;;;;;;;;;;;;;5092464;28;19974;-49
2022/03/02 05:06:55;;;;;;;;;;;;;;;;;;5091886;28;20311;-51
2022/03/02 05:09:22;;;;;;;;;;;;;;;;;;5093966;28;20270;-49
2022/03/02 05:11:48;;;;;;;;;;;;;;;;;;5091533;28;19908;-43
2022/03/02 05:14:15;;;;;;;;;;;;;;;;;;5091657;28;19908;-49
2022/03/02 05:16:41;;;;;;;;;;;;;;;;;;5091245;28;20389;-52
2022/03/02 05:19:08;;;;;;;;;;;;;;;;;;5091692;28;19918;-56
2022/03/02 05:21:34;;;;;;;;;;;;;;;;;;5092377;28;19908;-56
2022/03/02 05:24:01;;;;;;;;;;;;;;;;;;5089952;28;19916;-50
2022/03/02 05:26:28;;;;;;;;;;;;;;;;;;5091640;28;20388;-51
2022/03/02 05:28:54;;;;;;;;;;;;;;;;;;5091893;28;20006;-53
2022/03/02 05:31:23;;;;;;;;;;;;;;;;;;5091852;28;19983;-52
2022/03/02 05:33:51;;;;;;;;;;;;;;;;;;5088516;28;20046;-48
2022/03/02 05:36:17;;;;;;;;;;;;;;;;;;5092079;28;19916;-56
2022/03/02 05:38:44;;;;;;;;;;;;;;;;;;5091558;28;19919;-53
2022/03/02 05:41:10;;;;;;;;;;;;;;;;;;5091983;28;20339;-56
2022/03/02 05:43:37;;;;;;;;;;;;;;;;;;5093735;28;20459;-58
2022/03/02 05:46:03;;;;;;;;;;;;;;;;;;5091445;28;20338;-58
2022/03/02 05:48:30;;;;;;;;;;;;;;;;;;5094204;28;19908;-60
2022/03/02 05:50:56;;;;;;;;;;;;;;;;;;5094562;28;19991;-60
2022/03/02 05:53:23;;;;;;;;;;;;;;;;;;5094619;28;20385;-59
2022/03/02 05:55:49;;;;;;;;;;;;;;;;;;5094465;28;19912;-55
2022/03/02 05:58:16;;;;;;;;;;;;;;;;;;5094423;28;19908;-68
2022/03/02 06:00:42;;;;;;;;;;;;;;;;;;5094113;28;20045;-69
2022/03/02 06:03:09;;;;;;;;;;;;;;;;;;5092503;28;19959;-66
2022/03/02 06:05:35;;;;;;;;;;;;;;;;;;5092807;28;20008;-65
2022/03/02 06:08:01;;;;;;;;;;;;;;;;;;5093274;28;19908;-65
2022/03/02 06:10:28;;;;;;;;;;;;;;;;;;5093651;28;19947;-67
2022/03/02 06:12:54;;;;;;;;;;;;;;;;;;5094829;28;19908;-68
2022/03/02 06:15:21;;;;;;;;;;;;;;;;;;5094639;28;19994;-69
2022/03/02 06:17:47;;;;;;;;;;;;;;;;;;5094209;28;20007;-69
2022/03/02 06:20:14;;;;;;;;;;;;;;;;;;5093332;28;19908;-63
2022/03/02 06:22:40;;;;;;;;;;;;;;;;;;5093623;28;19916;-66
2022/03/02 06:25:07;;;;;;;;;;;;;;;;;;5094789;28;19914;-68
2022/03/02 06:27:34;;;;;;;;;;;;;;;;;;5093591;28;19930;-68
2022/03/02 06:30:01;;;;;;;;;;;;;;;;;;5093924;28;19915;-67
2022/03/02 06:32:28;;;;;;;;;;;;;;;;;;5093555;28;19916;-68
2022/03/02 06:34:55;;;;;;;;;;;;;;;;;;5093717;28;19948;-65
2022/03/02 06:37:21;;;;;;;;;;;;;;;;;;5093810;28;20346;-67
2022/03/02 06:39:48;;;;;;;;;;;;;;;;;;5094388;28;20316;-66
2022/03/02 06:42:14;;;;;;;;;;;;;;;;;;5094059;28;19950;-67
2022/03/02 06:44:41;;;;;;;;;;;;;;;;;;5093460;28;19908;-69
2022/03/02 06:47:10;;;;;;;;;;;;;;;;;;5094221;28;19912;-65
2022/03/02 06:49:37;;;;;;;;;;;;;;;;;;5093930;28;19930;-60
2022/03/02 06:52:04;;;;;;;;;;;;;;;;;;5093719;28;19908;-68
2022/03/02 06:54:30;;;;;;;;;;;;;;;;;;5093845;28;19939;-67
2022/03/02 06:57:03;;;;;;;;;;;;;;;;;;5094125;28;19908;-62
2022/03/02 06:59:32;;;;;;;;;;;;;;;;;;5094036;28;19995;-62
2022/03/02 07:01:58;;;;;;;;;;;;;;;;;;5093967;28;19969;-71
2022/03/02 07:04:25;;;;;;;;;;;;;;;;;;5092731;28;19916;-64
2022/03/02 07:06:51;;;;;;;;;;;;;;;;;;5092510;28;19908;-64
2022/03/02 07:09:18;;;;;;;;;;;;;;;;;;5092829;28;19930;-63
2022/03/02 07:11:44;;;;;;;;;;;;;;;;;;5087902;28;19912;-61
2022/03/02 07:14:15;;;;;;;;;;;;;;;;;;5090118;28;19920;-65
2022/03/02 07:16:41;;;;;;;;;;;;;;;;;;5093264;28;19908;-65
2022/03/02 07:19:08;;;;;;;;;;;;;;;;;;5092393;28;20385;-66
2022/03/02 07:21:37;;;;;;;;;;;;;;;;;;5093599;28;19908;-63
2022/03/02 07:24:06;;;;;;;;;;;;;;;;;;5093215;28;19927;-64
2022/03/02 07:26:33;;;;;;;;;;;;;;;;;;5093119;28;19908;-66
2022/03/02 07:28:59;;;;;;;;;;;;;;;;;;5093484;28;19973;-69
2022/03/02 07:31:26;;;;;;;;;;;;;;;;;;5093736;28;20287;-66
2022/03/02 07:33:53;;;;;;;;;;;;;;;;;;5093590;28;19976;-65
2022/03/02 07:36:19;;;;;;;;;;;;;;;;;;5093730;28;19915;-66
2022/03/02 07:38:48;;;;;;;;;;;;;;;;;;5093093;28;20409;-64
2022/03/02 07:41:15;;;;;;;;;;;;;;;;;;5092731;28;19908;-64
2022/03/02 07:43:42;;;;;;;;;;;;;;;;;;5092790;28;20393;-65
2022/03/02 07:46:12;;;;;;;;;;;;;;;;;;5092141;28;19912;-66
2022/03/02 07:48:38;;;;;;;;;;;;;;;;;;5092650;28;19995;-63
2022/03/02 07:51:15;;;;;;;;;;;;;;;;;;5092784;28;19961;-68
2022/03/02 07:53:41;;;;;;;;;;;;;;;;;;5093107;28;19908;-67
2022/03/02 07:56:08;;;;;;;;;;;;;;;;;;5093358;28;19908;-65
2022/03/02 07:58:37;;;;;;;;;;;;;;;;;;5093492;28;19912;-69
2022/03/02 08:01:04;;;;;;;;;;;;;;;;;;5091770;28;19959;-68
2022/03/02 08:03:30;;;;;;;;;;;;;;;;;;5092659;28;19920;-69
2022/03/02 08:05:57;;;;;;;;;;;;;;;;;;5093177;28;20105;-69
2022/03/02 08:08:23;;;;;;;;;;;;;;;;;;5092500;28;20339;-68
2022/03/02 08:10:50;;;;;;;;;;;;;;;;;;5093383;28;19915;-72
2022/03/02 08:13:17;;;;;;;;;;;;;;;;;;5086524;28;20300;-68
2022/03/02 08:15:44;;;;;;;;;;;;;;;;;;5091327;28;20405;-67
2022/03/02 08:18:11;;;;;;;;;;;;;;;;;;5091547;28;19938;-69
2022/03/02 08:20:37;;;;;;;;;;;;;;;;;;5094150;28;19912;-66
2022/03/02 08:23:04;;;;;;;;;;;;;;;;;;5094370;28;20308;-67
2022/03/02 08:25:30;;;;;;;;;;;;;;;;;;5094636;28;20393;-64
2022/03/02 08:27:57;;;;;;;;;;;;;;;;;;5094700;28;20195;-65
2022/03/02 08:30:24;;;;;;;;;;;;;;;;;;5091115;28;20279;-66
2022/03/02 08:32:51;;;;;;;;;;;;;;;;;;5093725;28;19985;-62
2022/03/02 08:35:17;;;;;;;;;;;;;;;;;;5093269;28;19916;-65
2022/03/02 08:37:44;;;;;;;;;;;;;;;;;;5093062;28;19912;-62
2022/03/02 08:40:11;;;;;;;;;;;;;;;;;;5091098;28;19908;-61
2022/03/02 08:42:37;;;;;;;;;;;;;;;;;;5093274;28;19967;-61
2022/03/02 08:45:04;;;;;;;;;;;;;;;;;;5090853;28;19912;-60
2022/03/02 08:47:31;;;;;;;;;;;;;;;;;;5092953;28;20006;-61
2022/03/02 08:49:58;;;;;;;;;;;;;;;;;;5088427;28;19919;-61
2022/03/02 08:52:24;;;;;;;;;;;;;;;;;;5091101;28;19912;-62
2022/03/02 08:54:51;;;;;;;;;;;;;;;;;;5093020;28;19985;-61
2022/03/02 08:57:17;;;;;;;;;;;;;;;;;;5085402;28;19981;-61
2022/03/02 08:59:44;;;;;;;;;;;;;;;;;;5093123;27;19947;-69
2022/03/02 09:02:10;;;;;;;;;;;;;;;;;;5093126;28;19920;-71
2022/03/02 09:04:37;;;;;;;;;;;;;;;;;;5090607;28;20003;-70
2022/03/02 09:07:03;;;;;;;;;;;;;;;;;;5090030;28;20350;-67
2022/03/02 09:09:30;;;;;;;;;;;;;;;;;;5090543;28;19935;-62
2022/03/02 09:11:56;;;;;;;;;;;;;;;;;;5091784;28;19994;-67
2022/03/02 09:14:23;;;;;;;;;;;;;;;;;;5089659;28;20457;-68
2022/03/02 09:16:49;;;;;;;;;;;;;;;;;;5093811;28;19984;-63
2022/03/02 09:19:16;;;;;;;;;;;;;;;;;;5090240;28;20008;-54
2022/03/02 09:21:42;;;;;;;;;;;;;;;;;;5093554;28;19908;-53
2022/03/02 09:24:09;;;;;;;;;;;;;;;;;;5092255;28;19916;-52
2022/03/02 09:26:35;;;;;;;;;;;;;;;;;;5092416;28;19931;-59
2022/03/02 09:29:02;;;;;;;;;;;;;;;;;;5090603;28;19961;-55
2022/03/02 09:31:28;;;;;;;;;;;;;;;;;;5090917;28;19912;-55
2022/03/02 09:33:54;;;;;;;;;;;;;;;;;;5092049;28;19923;-51
2022/03/02 09:36:21;;;;;;;;;;;;;;;;;;5092865;28;19965;-53
2022/03/02 09:38:47;;;;;;;;;;;;;;;;;;5090874;28;20252;-50
2022/03/02 09:41:14;;;;;;;;;;;;;;;;;;5092680;28;19916;-55
2022/03/02 09:43:40;;;;;;;;;;;;;;;;;;5092086;28;19920;-55
2022/03/02 09:46:07;;;;;;;;;;;;;;;;;;5092917;28;19908;-55
2022/03/02 09:48:34;;;;;;;;;;;;;;;;;;5089793;28;20007;-51
2022/03/02 09:51:00;;;;;;;;;;;;;;;;;;5091896;28;20269;-49
2022/03/02 09:53:27;;;;;;;;;;;;;;;;;;5093170;28;19954;-54
2022/03/02 09:55:53;;;;;;;;;;;;;;;;;;5091940;28;19908;-50
2022/03/02 09:58:20;;;;;;;;;;;;;;;;;;5090029;28;19920;-52
2022/03/02 10:00:46;;;;;;;;;;;;;;;;;;5091484;28;19908;-52
2022/03/02 10:03:13;;;;;;;;;;;;;;;;;;5091813;28;19928;-52
2022/03/02 10:05:39;;;;;;;;;;;;;;;;;;5091755;28;19908;-55
2022/03/02 10:08:07;;;;;;;;;;;;;;;;;;5091986;28;19947;-52
2022/03/02 10:10:36;;;;;;;;;;;;;;;;;;5089459;28;19916;-50
2022/03/02 10:13:03;;;;;;;;;;;;;;;;;;5092191;28;19911;-55
2022/03/02 10:15:29;;;;;;;;;;;;;;;;;;5092208;28;20000;-47
2022/03/02 10:17:56;;;;;;;;;;;;;;;;;;5091481;28;19908;-55
2022/03/02 10:20:22;;;;;;;;;;;;;;;;;;5089287;28;19914;-50
2022/03/02 10:22:49;;;;;;;;;;;;;;;;;;5091714;28;20370;-55
2022/03/02 10:25:15;;;;;;;;;;;;;;;;;;5091919;28;20262;-55
2022/03/02 10:27:42;;;;;;;;;;;;;;;;;;5091262;28;20004;-54
2022/03/02 10:30:08;;;;;;;;;;;;;;;;;;5089040;28;19908;-55
2022/03/02 10:32:37;;;;;;;;;;;;;;;;;;5091584;28;19915;-54
2022/03/02 10:35:07;;;;;;;;;;;;;;;;;;5091199;28;20333;-53
2022/03/02 10:37:36;;;;;;;;;;;;;;;;;;5086962;28;19995;-53
2022/03/02 10:40:09;;;;;;;;;;;;;;;;;;5089562;28;19914;-50
2022/03/02 10:42:36;;;;;;;;;;;;;;;;;;5089773;28;19960;-52
2022/03/02 10:45:02;;;;;;;;;;;;;;;;;;5091485;28;19916;-51
2022/03/02 10:47:29;;;;;;;;;;;;;;;;;;5091268;28;20356;-53
2022/03/02 10:49:55;;;;;;;;;;;;;;;;;;5088465;28;19916;-50
2022/03/02 10:52:22;;;;;;;;;;;;;;;;;;5092587;28;19908;-50
2022/03/02 10:54:48;;;;;;;;;;;;;;;;;;5090635;28;20301;-53
2022/03/02 10:57:15;;;;;;;;;;;;;;;;;;5090039;28;19915;-54
2022/03/02 10:59:41;;;;;;;;;;;;;;;;;;5088238;28;19962;-53
2022/03/02 11:02:08;;;;;;;;;;;;;;;;;;5090753;28;19923;-56
2022/03/02 11:04:34;;;;;;;;;;;;;;;;;;5090666;28;19924;-53
2022/03/02 11:07:01;;;;;;;;;;;;;;;;;;5091236;28;19908;-51
2022/03/02 11:09:27;;;;;;;;;;;;;;;;;;5087786;28;19912;-50
2022/03/02 11:11:54;;;;;;;;;;;;;;;;;;5091314;28;20278;-52
2022/03/02 11:14:21;;;;;;;;;;;;;;;;;;5090924;28;20319;-53
2022/03/02 11:16:50;;;;;;;;;;;;;;;;;;5090724;28;20117;-58
2022/03/02 11:19:16;;;;;;;;;;;;;;;;;;5087651;28;19908;-53
2022/03/02 11:21:43;;;;;;;;;;;;;;;;;;5091184;28;19908;-54
2022/03/02 11:24:09;;;;;;;;;;;;;;;;;;5090446;28;19923;-52
2022/03/02 11:26:35;;;;;;;;;;;;;;;;;;5090053;28;19915;-52
2022/03/02 11:29:02;;;;;;;;;;;;;;;;;;5088105;28;19923;-49
2022/03/02 11:31:30;;;;;;;;;;;;;;;;;;5090616;28;19922;-52
2022/03/02 11:33:56;;;;;;;;;;;;;;;;;;5085614;28;20370;-55
2022/03/02 11:36:23;;;;;;;;;;;;;;;;;;5087282;28;19918;-53
2022/03/02 11:38:50;;;;;;;;;;;;;;;;;;5087540;28;19916;-49
2022/03/02 11:41:17;;;;;;;;;;;;;;;;;;5090357;28;19947;-54
2022/03/02 11:43:43;;;;;;;;;;;;;;;;;;5089901;28;19973;-52
2022/03/02 11:46:10;;;;;;;;;;;;;;;;;;5089125;28;19962;-54
2022/03/02 11:48:37;;;;;;;;;;;;;;;;;;5087145;28;20259;-54
2022/03/02 11:51:04;;;;;;;;;;;;;;;;;;5090321;28;19908;-51
2022/03/02 11:53:30;;;;;;;;;;;;;;;;;;5090710;28;19952;-53
2022/03/02 11:55:57;;;;;;;;;;;;;;;;;;5090040;28;19916;-51
2022/03/02 11:58:23;;;;;;;;;;;;;;;;;;5087955;28;19938;-52
2022/03/02 12:00:50;;;;;;;;;;;;;;;;;;5090062;28;19908;-52
2022/03/02 12:03:16;;;;;;;;;;;;;;;;;;5092352;28;20431;-49
2022/03/02 12:05:46;;;;;;;;;;;;;;;;;;5091660;28;20189;-47
2022/03/02 12:08:13;;;;;;;;;;;;;;;;;;5092856;28;19915;-48
2022/03/02 12:10:39;;;;;;;;;;;;;;;;;;5092469;28;20372;-57
2022/03/02 12:13:06;;;;;;;;;;;;;;;;;;5092327;28;19908;-60
2022/03/02 12:15:33;;;;;;;;;;;;;;;;;;5092137;28;19904;-60
2022/03/02 12:17:59;;;;;;;;;;;;;;;;;;5092604;28;19977;-59
2022/03/02 12:20:25;;;;;;;;;;;;;;;;;;5092544;28;19904;-57
2022/03/02 12:22:52;;;;;;;;;;;;;;;;;;5093057;28;19912;-54
2022/03/02 12:25:19;;;;;;;;;;;;;;;;;;5091584;28;20354;-63
2022/03/02 12:27:46;;;;;;;;;;;;;;;;;;5091394;28;20381;-57
2022/03/02 12:30:12;;;;;;;;;;;;;;;;;;5092210;28;20382;-60
2022/03/02 12:32:39;;;;;;;;;;;;;;;;;;5092055;28;20290;-60
2022/03/02 12:35:05;;;;;;;;;;;;;;;;;;5091165;28;19943;-62
2022/03/02 12:37:33;;;;;;;;;;;;;;;;;;5086594;28;19912;-51
2022/03/02 12:40:00;;;;;;;;;;;;;;;;;;5089807;28;20006;-48
2022/03/02 12:42:26;;;;;;;;;;;;;;;;;;5089663;28;19919;-54
2022/03/02 12:44:54;;;;;;;;;;;;;;;;;;5092214;28;19912;-59
2022/03/02 12:47:20;;;;;;;;;;;;;;;;;;5092747;28;19908;-60
2022/03/02 12:49:47;;;;;;;;;;;;;;;;;;5092601;28;20661;-58
2022/03/02 12:52:13;;;;;;;;;;;;;;;;;;5087213;28;19999;-53
2022/03/02 12:54:41;;;;;;;;;;;;;;;;;;5091199;28;20367;-56
2022/03/02 12:57:07;;;;;;;;;;;;;;;;;;5089644;28;19912;-54
2022/03/02 12:59:34;;;;;;;;;;;;;;;;;;5088852;28;19908;-57
2022/03/02 13:02:00;;;;;;;;;;;;;;;;;;5089403;28;20229;-55
2022/03/02 13:04:27;;;;;;;;;;;;;;;;;;5086983;28;19915;-52
2022/03/02 13:06:53;;;;;;;;;;;;;;;;;;5091618;28;19939;-54
2022/03/02 13:09:20;;;;;;;;;;;;;;;;;;5092279;28;20358;-51
2022/03/02 13:11:46;;;;;;;;;;;;;;;;;;5093712;28;20270;-55
2022/03/02 13:14:13;;;;;;;;;;;;;;;;;;5091206;28;19931;-53
2022/03/02 13:16:39;;;;;;;;;;;;;;;;;;5093133;28;19915;-53
2022/03/02 13:19:06;;;;;;;;;;;;;;;;;;5092604;28;19948;-57
2022/03/02 13:21:32;;;;;;;;;;;;;;;;;;5093342;28;19915;-57
2022/03/02 13:23:59;;;;;;;;;;;;;;;;;;5090825;28;19916;-52
2022/03/02 13:26:25;;;;;;;;;;;;;;;;;;5092462;28;20002;-53
2022/03/02 13:28:51;;;;;;;;;;;;;;;;;;5092744;28;19938;-55
2022/03/02 13:31:18;;;;;;;;;;;;;;;;;;5093143;28;19919;-59
2022/03/02 13:33:44;;;;;;;;;;;;;;;;;;5090063;28;20304;-54
2022/03/02 13:36:11;;;;;;;;;;;;;;;;;;5092255;28;20358;-56
2022/03/02 13:38:37;;;;;;;;;;;;;;;;;;5092440;28;20042;-58
2022/03/02 13:41:04;;;;;;;;;;;;;;;;;;5092743;28;19920;-51
2022/03/02 13:43:33;;;;;;;;;;;;;;;;;;5089703;28;19943;-54
2022/03/02 13:46:00;;;;;;;;;;;;;;;;;;5092187;28;19995;-54
2022/03/02 13:48:27;;;;;;;;;;;;;;;;;;5092393;28;19912;-56
2022/03/02 13:50:53;;;;;;;;;;;;;;;;;;5092934;28;19908;-55
2022/03/02 13:53:19;;;;;;;;;;;;;;;;;;5089172;28;19959;-59
2022/03/02 13:55:47;;;;;;;;;;;;;;;;;;5091893;28;19908;-55
2022/03/02 13:58:14;;;;;;;;;;;;;;;;;;5093215;28;19908;-56
2022/03/02 14:00:40;;;;;;;;;;;;;;;;;;5091937;28;19915;-54
2022/03/02 14:03:06;;;;;;;;;;;;;;;;;;5094169;28;19963;-56
2022/03/02 14:05:33;;;;;;;;;;;;;;;;;;5090910;28;19908;-54
2022/03/02 14:07:59;;;;;;;;;;;;;;;;;;5092262;28;19955;-56
2022/03/02 14:10:26;;;;;;;;;;;;;;;;;;5091949;28;19915;-50
2022/03/02 14:12:52;;;;;;;;;;;;;;;;;;5092151;28;19908;-51
2022/03/02 14:15:19;;;;;;;;;;;;;;;;;;5089586;28;19912;-52
2022/03/02 14:17:45;;;;;;;;;;;;;;;;;;5091504;28;19908;-52
2022/03/02 14:20:12;;;;;;;;;;;;;;;;;;5091915;28;19908;-50
2022/03/02 14:22:38;;;;;;;;;;;;;;;;;;5091844;28;19915;-54
2022/03/02 14:25:04;;;;;;;;;;;;;;;;;;5089643;28;19916;-48
2022/03/02 14:27:31;;;;;;;;;;;;;;;;;;5091705;28;19908;-48
2022/03/02 14:29:57;;;;;;;;;;;;;;;;;;5091534;28;20010;-51
2022/03/02 14:32:24;;;;;;;;;;;;;;;;;;5091027;28;20003;-53
2022/03/02 14:34:50;;;;;;;;;;;;;;;;;;5090756;28;19920;-49
2022/03/02 14:37:17;;;;;;;;;;;;;;;;;;5090287;28;19908;-53
2022/03/02 14:39:43;;;;;;;;;;;;;;;;;;5090035;28;19912;-54
2022/03/02 14:42:10;;;;;;;;;;;;;;;;;;5090703;28;20385;-56
2022/03/02 14:44:37;;;;;;;;;;;;;;;;;;5091376;28;20374;-54
2022/03/02 14:47:04;;;;;;;;;;;;;;;;;;5088623;28;20312;-48
2022/03/02 14:49:30;;;;;;;;;;;;;;;;;;5091585;28;19908;-51
2022/03/02 14:52:02;;;;;;;;;;;;;;;;;;5091837;28;19919;-58
2022/03/02 14:54:28;;;;;;;;;;;;;;;;;;5091553;28;19986;-57
2022/03/02 14:56:55;;;;;;;;;;;;;;;;;;5089377;28;19917;-58
2022/03/02 14:59:21;;;;;;;;;;;;;;;;;;5090652;28;19912;-58
2022/03/02 15:01:47;;;;;;;;;;;;;;;;;;5090469;28;20358;-51
2022/03/02 15:04:14;;;;;;;;;;;;;;;;;;5091178;28;20365;-54
2022/03/02 15:06:41;;;;;;;;;;;;;;;;;;5088736;28;20437;-55
2022/03/02 15:09:08;;;;;;;;;;;;;;;;;;5090349;28;19908;-56
2022/03/02 15:11:35;;;;;;;;;;;;;;;;;;5090504;28;19943;-49
2022/03/02 15:16:46;;;;;;;;;;;;;;;;;;5088225;28;19927;-52
2022/03/02 15:19:13;;;;;;;;;;;;;;;;;;5090954;28;19931;-54
2022/03/02 15:21:39;;;;;;;;;;;;;;;;;;5090693;28;19908;-50
2022/03/02 15:24:06;;;;;;;;;;;;;;;;;;5089851;28;19916;-51
2022/03/02 15:26:32;;;;;;;;;;;;;;;;;;5088968;28;19953;-58
2022/03/02 15:28:58;;;;;;;;;;;;;;;;;;5090423;28;19915;-54
2022/03/02 15:31:25;;;;;;;;;;;;;;;;;;5089686;28;19914;-54
2022/03/02 15:33:51;;;;;;;;;;;;;;;;;;5090016;28;19908;-51
2022/03/02 15:36:18;;;;;;;;;;;;;;;;;;5088605;28;19916;-49
2022/03/02 15:38:45;;;;;;;;;;;;;;;;;;5090475;28;19961;-50
2022/03/02 15:41:11;;;;;;;;;;;;;;;;;;5089626;28;19912;-53
2022/03/02 15:43:38;;;;;;;;;;;;;;;;;;5090217;28;19924;-47
2022/03/02 15:46:05;;;;;;;;;;;;;;;;;;5087704;28;19955;-56
2022/03/02 15:48:33;;;;;;;;;;;;;;;;;;5087818;28;19912;-55
2022/03/02 15:50:59;;;;;;;;;;;;;;;;;;5091690;28;20270;-54
2022/03/02 15:53:26;;;;;;;;;;;;;;;;;;5090460;28;20045;-52
2022/03/02 15:55:52;;;;;;;;;;;;;;;;;;5087059;28;19963;-51
2022/03/02 15:58:21;;;;;;;;;;;;;;;;;;5090614;28;19908;-59
2022/03/02 16:00:47;;;;;;;;;;;;;;;;;;5093556;28;19912;-54
2022/03/02 16:03:13;;;;;;;;;;;;;;;;;;5093016;28;19924;-56
2022/03/02 16:05:40;;;;;;;;;;;;;;;;;;5093168;28;19915;-53
2022/03/02 16:08:12;;;;;;;;;;;;;;;;;;5093236;28;19944;-56
2022/03/02 16:10:39;;;;;;;;;;;;;;;;;;5092076;28;19912;-54
2022/03/02 16:13:06;;;;;;;;;;;;;;;;;;5093156;28;19908;-52
2022/03/02 16:15:33;;;;;;;;;;;;;;;;;;5093030;28;19931;-55
2022/03/02 16:17:59;;;;;;;;;;;;;;;;;;5093255;28;20250;-54
2022/03/02 16:20:26;;;;;;;;;;;;;;;;;;5093060;28;19912;-56
2022/03/02 16:22:52;;;;;;;;;;;;;;;;;;5093308;28;19916;-59
2022/03/02 16:25:18;;;;;;;;;;;;;;;;;;5092640;28;19909;-59
2022/03/02 16:27:45;;;;;;;;;;;;;;;;;;5092832;28;19913;-55
2022/03/02 16:30:11;;;;;;;;;;;;;;;;;;5093000;28;19908;-57
2022/03/02 16:32:39;;;;;;;;;;;;;;;;;;5093560;28;19965;-60
2022/03/02 16:35:07;;;;;;;;;;;;;;;;;;5093332;28;19908;-60
2022/03/02 16:37:34;;;;;;;;;;;;;;;;;;5093119;28;19934;-54
2022/03/02 16:40:02;;;;;;;;;;;;;;;;;;5093988;28;19915;-59
2022/03/02 16:42:28;;;;;;;;;;;;;;;;;;5097246;28;19908;-58
2022/03/02 16:44:55;;;;;;;;;;;;;;;;;;5096953;28;19981;-56
2022/03/02 16:47:21;;;;;;;;;;;;;;;;;;5097341;28;19915;-54